sensor_id;sensor_type;location;lat;lon;timestamp;temperature;humidity
17988;DHT22;9119;50.932;5.342;2023-08-17T00:01:49;20.40;99.90
17988;DHT22;9119;50.932;5.342;2023-08-17T00:04:15;20.50;99.90
17988;DHT22;9119;50.932;5.342;2023-08-17T00:06:42;20.60;99.90
17988;DHT22;9119;50.932;5.342;2023-08-17T00:09:08;20.60;99.90
17988;DHT22;9119;50.932;5.342;2023-08-17T00:11:35;20.50;99.90
17988;DHT22;9119;50.932;5.342;2023-08-17T00:14:01;20.50;99.90
17988;DHT22;9119;50.932;5.342;2023-08-17T00:16:27;20.60;99.90
17988;DHT22;9119;50.932;5.342;2023-08-17T00:18:53;20.50;99.90
17988;DHT22;9119;50.932;5.342;2023-08-17T00:21:18;20.40;99.90
17988;DHT22;9119;50.932;5.342;2023-08-17T00:23:44;20.40;99.90
17988;DHT22;9119;50.932;5.342;2023-08-17T00:26:10;20.40;99.90
17988;DHT22;9119;50.932;5.342;2023-08-17T00:28:36;20.40;99.90
17988;DHT22;9119;50.932;5.342;2023-08-17T00:31:01;20.50;99.90
17988;DHT22;9119;50.932;5.342;2023-08-17T00:33:27;20.40;99.90
17988;DHT22;9119;50.932;5.342;2023-08-17T00:35:53;20.40;99.90
17988;DHT22;9119;50.932;5.342;2023-08-17T00:38:19;20.30;99.90
17988;DHT22;9119;50.932;5.342;2023-08-17T00:40:45;20.30;99.90
17988;DHT22;9119;50.932;5.342;2023-08-17T00:43:10;20.40;99.90
17988;DHT22;9119;50.932;5.342;2023-08-17T00:45:36;20.50;99.90
17988;DHT22;9119;50.932;5.342;2023-08-17T00:48:02;20.40;99.90
17988;DHT22;9119;50.932;5.342;2023-08-17T00:50:31;20.40;99.90
17988;DHT22;9119;50.932;5.342;2023-08-17T00:52:57;20.40;99.90
17988;DHT22;9119;50.932;5.342;2023-08-17T00:55:23;20.30;99.90
17988;DHT22;9119;50.932;5.342;2023-08-17T00:57:50;20.40;99.90
17988;DHT22;9119;50.932;5.342;2023-08-17T01:00:17;20.30;99.90
17988;DHT22;9119;50.932;5.342;2023-08-17T01:02:43;20.30;99.90
17988;DHT22;9119;50.932;5.342;2023-08-17T01:05:10;20.30;99.90
17988;DHT22;9119;50.932;5.342;2023-08-17T01:07:35;20.20;99.90
17988;DHT22;9119;50.932;5.342;2023-08-17T01:10:03;20.20;99.90
17988;DHT22;9119;50.932;5.342;2023-08-17T01:12:38;20.10;99.90
17988;DHT22;9119;50.932;5.342;2023-08-17T01:15:15;20.10;99.90
17988;DHT22;9119;50.932;5.342;2023-08-17T01:18:04;20.20;99.90
17988;DHT22;9119;50.932;5.342;2023-08-17T01:20:34;20.30;99.90
17988;DHT22;9119;50.932;5.342;2023-08-17T01:23:07;20.30;99.90
17988;DHT22;9119;50.932;5.342;2023-08-17T01:25:33;20.20;99.90
17988;DHT22;9119;50.932;5.342;2023-08-17T01:28:03;20.20;99.90
17988;DHT22;9119;50.932;5.342;2023-08-17T01:30:32;20.20;99.90
17988;DHT22;9119;50.932;5.342;2023-08-17T01:33:06;20.10;99.90
17988;DHT22;9119;50.932;5.342;2023-08-17T01:35:44;20.00;99.90
17988;DHT22;9119;50.932;5.342;2023-08-17T01:38:16;20.00;99.90
17988;DHT22;9119;50.932;5.342;2023-08-17T01:40:45;20.00;99.90
17988;DHT22;9119;50.932;5.342;2023-08-17T01:43:13;20.00;99.90
17988;DHT22;9119;50.932;5.342;2023-08-17T01:45:40;20.00;99.90
17988;DHT22;9119;50.932;5.342;2023-08-17T01:48:06;20.10;99.90
17988;DHT22;9119;50.932;5.342;2023-08-17T01:50:31;20.10;99.90
17988;DHT22;9119;50.932;5.342;2023-08-17T01:52:57;20.20;99.90
17988;DHT22;9119;50.932;5.342;2023-08-17T01:55:23;20.10;99.90
17988;DHT22;9119;50.932;5.342;2023-08-17T01:57:49;19.90;99.90
17988;DHT22;9119;50.932;5.342;2023-08-17T02:00:15;20.00;99.90
17988;DHT22;9119;50.932;5.342;2023-08-17T02:02:41;20.00;99.90
17988;DHT22;9119;50.932;5.342;2023-08-17T02:05:07;19.90;99.90
17988;DHT22;9119;50.932;5.342;2023-08-17T02:07:33;19.90;99.90
17988;DHT22;9119;50.932;5.342;2023-08-17T02:09:58;20.00;99.90
17988;DHT22;9119;50.932;5.342;2023-08-17T02:12:24;20.00;99.90
17988;DHT22;9119;50.932;5.342;2023-08-17T02:14:50;20.10;99.90
17988;DHT22;9119;50.932;5.342;2023-08-17T02:17:16;20.10;99.90
17988;DHT22;9119;50.932;5.342;2023-08-17T02:19:45;20.00;99.90
17988;DHT22;9119;50.932;5.342;2023-08-17T02:22:13;20.10;99.90
17988;DHT22;9119;50.932;5.342;2023-08-17T02:24:39;20.10;99.90
17988;DHT22;9119;50.932;5.342;2023-08-17T02:27:04;20.20;99.90
17988;DHT22;9119;50.932;5.342;2023-08-17T02:29:30;20.10;99.90
17988;DHT22;9119;50.932;5.342;2023-08-17T02:31:56;20.10;99.90
17988;DHT22;9119;50.932;5.342;2023-08-17T02:34:21;20.10;99.90
17988;DHT22;9119;50.932;5.342;2023-08-17T02:36:47;20.10;99.90
17988;DHT22;9119;50.932;5.342;2023-08-17T02:39:13;20.20;99.90
17988;DHT22;9119;50.932;5.342;2023-08-17T02:41:38;20.20;99.90
17988;DHT22;9119;50.932;5.342;2023-08-17T02:44:05;20.20;99.90
17988;DHT22;9119;50.932;5.342;2023-08-17T02:46:30;20.20;99.90
17988;DHT22;9119;50.932;5.342;2023-08-17T02:48:56;20.20;99.90
17988;DHT22;9119;50.932;5.342;2023-08-17T02:51:22;20.30;99.90
17988;DHT22;9119;50.932;5.342;2023-08-17T02:53:47;20.20;99.90
17988;DHT22;9119;50.932;5.342;2023-08-17T02:56:13;20.10;99.90
17988;DHT22;9119;50.932;5.342;2023-08-17T02:58:39;20.10;99.90
17988;DHT22;9119;50.932;5.342;2023-08-17T03:01:08;20.00;99.90
17988;DHT22;9119;50.932;5.342;2023-08-17T03:03:34;20.10;99.90
17988;DHT22;9119;50.932;5.342;2023-08-17T03:06:02;20.10;99.90
17988;DHT22;9119;50.932;5.342;2023-08-17T03:08:28;20.00;99.90
17988;DHT22;9119;50.932;5.342;2023-08-17T03:10:53;19.90;99.90
17988;DHT22;9119;50.932;5.342;2023-08-17T03:13:19;19.80;99.90
17988;DHT22;9119;50.932;5.342;2023-08-17T03:15:45;19.80;99.90
17988;DHT22;9119;50.932;5.342;2023-08-17T03:18:10;19.80;99.90
17988;DHT22;9119;50.932;5.342;2023-08-17T03:20:36;19.80;99.90
17988;DHT22;9119;50.932;5.342;2023-08-17T03:23:02;19.70;99.90
17988;DHT22;9119;50.932;5.342;2023-08-17T03:25:31;19.70;99.90
17988;DHT22;9119;50.932;5.342;2023-08-17T03:27:57;19.80;99.90
17988;DHT22;9119;50.932;5.342;2023-08-17T03:30:23;19.80;99.90
17988;DHT22;9119;50.932;5.342;2023-08-17T03:32:48;19.60;99.90
17988;DHT22;9119;50.932;5.342;2023-08-17T03:35:14;19.60;99.90
17988;DHT22;9119;50.932;5.342;2023-08-17T03:37:39;19.70;99.90
17988;DHT22;9119;50.932;5.342;2023-08-17T03:40:06;19.60;99.90
17988;DHT22;9119;50.932;5.342;2023-08-17T03:42:31;19.50;99.90
17988;DHT22;9119;50.932;5.342;2023-08-17T03:44:57;19.50;99.90
17988;DHT22;9119;50.932;5.342;2023-08-17T03:47:23;19.50;99.90
17988;DHT22;9119;50.932;5.342;2023-08-17T03:49:48;19.40;99.90
17988;DHT22;9119;50.932;5.342;2023-08-17T03:52:14;19.40;99.90
17988;DHT22;9119;50.932;5.342;2023-08-17T03:54:40;19.50;99.90
17988;DHT22;9119;50.932;5.342;2023-08-17T03:57:05;19.50;99.90
17988;DHT22;9119;50.932;5.342;2023-08-17T03:59:31;19.40;99.90
17988;DHT22;9119;50.932;5.342;2023-08-17T04:01:57;19.40;99.90
17988;DHT22;9119;50.932;5.342;2023-08-17T04:04:22;19.50;99.90
17988;DHT22;9119;50.932;5.342;2023-08-17T04:06:48;19.50;99.90
17988;DHT22;9119;50.932;5.342;2023-08-17T04:09:14;19.60;99.90
17988;DHT22;9119;50.932;5.342;2023-08-17T04:11:39;19.60;99.90
17988;DHT22;9119;50.932;5.342;2023-08-17T04:14:05;19.70;99.90
17988;DHT22;9119;50.932;5.342;2023-08-17T04:16:32;19.70;99.90
17988;DHT22;9119;50.932;5.342;2023-08-17T04:18:57;19.60;99.90
17988;DHT22;9119;50.932;5.342;2023-08-17T04:21:23;19.50;99.90
17988;DHT22;9119;50.932;5.342;2023-08-17T04:23:48;19.50;99.90
17988;DHT22;9119;50.932;5.342;2023-08-17T04:26:14;19.50;99.90
17988;DHT22;9119;50.932;5.342;2023-08-17T04:28:40;19.50;99.90
17988;DHT22;9119;50.932;5.342;2023-08-17T04:31:05;19.60;99.90
17988;DHT22;9119;50.932;5.342;2023-08-17T04:33:31;19.50;99.90
17988;DHT22;9119;50.932;5.342;2023-08-17T04:35:57;19.60;99.90
17988;DHT22;9119;50.932;5.342;2023-08-17T04:38:25;19.60;99.90
17988;DHT22;9119;50.932;5.342;2023-08-17T04:40:50;19.50;99.90
17988;DHT22;9119;50.932;5.342;2023-08-17T04:43:16;19.50;99.90
17988;DHT22;9119;50.932;5.342;2023-08-17T04:45:42;19.50;99.90
17988;DHT22;9119;50.932;5.342;2023-08-17T04:48:08;19.60;99.90
17988;DHT22;9119;50.932;5.342;2023-08-17T04:50:33;19.60;99.90
17988;DHT22;9119;50.932;5.342;2023-08-17T04:52:59;19.50;99.90
17988;DHT22;9119;50.932;5.342;2023-08-17T04:55:25;19.40;99.90
17988;DHT22;9119;50.932;5.342;2023-08-17T04:57:50;19.40;99.90
17988;DHT22;9119;50.932;5.342;2023-08-17T05:00:16;19.40;99.90
17988;DHT22;9119;50.932;5.342;2023-08-17T05:02:42;19.30;99.90
17988;DHT22;9119;50.932;5.342;2023-08-17T05:05:10;19.20;99.90
17988;DHT22;9119;50.932;5.342;2023-08-17T05:07:36;19.20;99.90
17988;DHT22;9119;50.932;5.342;2023-08-17T05:10:02;19.30;99.90
17988;DHT22;9119;50.932;5.342;2023-08-17T05:12:28;19.10;99.90
17988;DHT22;9119;50.932;5.342;2023-08-17T05:14:54;19.10;99.90
17988;DHT22;9119;50.932;5.342;2023-08-17T05:17:20;19.10;99.90
17988;DHT22;9119;50.932;5.342;2023-08-17T05:19:45;19.10;99.90
17988;DHT22;9119;50.932;5.342;2023-08-17T05:22:12;19.10;99.90
17988;DHT22;9119;50.932;5.342;2023-08-17T05:24:38;19.10;99.90
17988;DHT22;9119;50.932;5.342;2023-08-17T05:27:04;19.10;99.90
17988;DHT22;9119;50.932;5.342;2023-08-17T05:29:30;19.20;99.90
17988;DHT22;9119;50.932;5.342;2023-08-17T05:31:58;19.20;99.90
17988;DHT22;9119;50.932;5.342;2023-08-17T05:34:24;19.20;99.90
17988;DHT22;9119;50.932;5.342;2023-08-17T05:36:50;19.20;99.90
17988;DHT22;9119;50.932;5.342;2023-08-17T05:39:15;19.10;99.90
17988;DHT22;9119;50.932;5.342;2023-08-17T05:41:41;19.10;99.90
17988;DHT22;9119;50.932;5.342;2023-08-17T05:44:07;19.10;99.90
17988;DHT22;9119;50.932;5.342;2023-08-17T05:46:33;19.10;99.90
17988;DHT22;9119;50.932;5.342;2023-08-17T05:49:00;19.20;99.90
17988;DHT22;9119;50.932;5.342;2023-08-17T05:51:25;19.20;99.90
17988;DHT22;9119;50.932;5.342;2023-08-17T05:53:51;19.00;99.90
17988;DHT22;9119;50.932;5.342;2023-08-17T05:56:17;18.80;99.90
17988;DHT22;9119;50.932;5.342;2023-08-17T05:58:42;18.80;99.90
17988;DHT22;9119;50.932;5.342;2023-08-17T06:01:09;18.70;99.90
17988;DHT22;9119;50.932;5.342;2023-08-17T06:03:36;18.70;99.90
17988;DHT22;9119;50.932;5.342;2023-08-17T06:06:05;18.60;99.90
17988;DHT22;9119;50.932;5.342;2023-08-17T06:08:31;18.60;99.90
17988;DHT22;9119;50.932;5.342;2023-08-17T06:10:57;18.60;99.90
17988;DHT22;9119;50.932;5.342;2023-08-17T06:13:23;18.60;99.90
17988;DHT22;9119;50.932;5.342;2023-08-17T06:15:48;18.60;99.90
17988;DHT22;9119;50.932;5.342;2023-08-17T06:18:14;18.50;99.90
17988;DHT22;9119;50.932;5.342;2023-08-17T06:20:40;18.40;99.90
17988;DHT22;9119;50.932;5.342;2023-08-17T06:23:05;18.50;99.90
17988;DHT22;9119;50.932;5.342;2023-08-17T06:25:31;18.60;99.90
17988;DHT22;9119;50.932;5.342;2023-08-17T06:27:56;18.60;99.90
17988;DHT22;9119;50.932;5.342;2023-08-17T06:30:22;18.70;99.90
17988;DHT22;9119;50.932;5.342;2023-08-17T06:32:50;18.80;99.90
17988;DHT22;9119;50.932;5.342;2023-08-17T06:35:16;18.90;99.90
17988;DHT22;9119;50.932;5.342;2023-08-17T06:37:41;18.80;99.90
17988;DHT22;9119;50.932;5.342;2023-08-17T06:40:07;18.80;99.90
17988;DHT22;9119;50.932;5.342;2023-08-17T06:42:34;18.90;99.90
17988;DHT22;9119;50.932;5.342;2023-08-17T06:45:00;18.90;99.90
17988;DHT22;9119;50.932;5.342;2023-08-17T06:47:26;19.00;99.90
17988;DHT22;9119;50.932;5.342;2023-08-17T06:49:52;19.10;99.90
17988;DHT22;9119;50.932;5.342;2023-08-17T06:52:17;19.00;99.90
17988;DHT22;9119;50.932;5.342;2023-08-17T06:54:43;19.00;99.90
17988;DHT22;9119;50.932;5.342;2023-08-17T06:57:09;19.00;99.90
17988;DHT22;9119;50.932;5.342;2023-08-17T06:59:34;19.10;99.90
17988;DHT22;9119;50.932;5.342;2023-08-17T07:02:00;19.10;99.90
17988;DHT22;9119;50.932;5.342;2023-08-17T07:04:26;19.20;99.90
17988;DHT22;9119;50.932;5.342;2023-08-17T07:06:52;19.20;99.90
17988;DHT22;9119;50.932;5.342;2023-08-17T07:09:17;19.20;99.90
17988;DHT22;9119;50.932;5.342;2023-08-17T07:11:44;19.30;99.90
17988;DHT22;9119;50.932;5.342;2023-08-17T07:14:10;19.30;99.90
17988;DHT22;9119;50.932;5.342;2023-08-17T07:16:35;19.20;99.90
17988;DHT22;9119;50.932;5.342;2023-08-17T07:19:02;19.10;99.90
17988;DHT22;9119;50.932;5.342;2023-08-17T07:21:28;19.10;99.90
17988;DHT22;9119;50.932;5.342;2023-08-17T07:23:54;19.20;99.90
17988;DHT22;9119;50.932;5.342;2023-08-17T07:26:21;19.20;99.90
17988;DHT22;9119;50.932;5.342;2023-08-17T07:28:47;19.10;99.90
17988;DHT22;9119;50.932;5.342;2023-08-17T07:31:13;19.10;99.90
17988;DHT22;9119;50.932;5.342;2023-08-17T07:33:39;19.20;99.90
17988;DHT22;9119;50.932;5.342;2023-08-17T07:36:05;19.30;99.90
17988;DHT22;9119;50.932;5.342;2023-08-17T07:38:31;19.30;99.90
17988;DHT22;9119;50.932;5.342;2023-08-17T07:40:56;19.40;99.90
17988;DHT22;9119;50.932;5.342;2023-08-17T07:43:23;19.30;99.90
17988;DHT22;9119;50.932;5.342;2023-08-17T07:45:58;19.40;99.90
17988;DHT22;9119;50.932;5.342;2023-08-17T07:48:23;19.50;99.90
17988;DHT22;9119;50.932;5.342;2023-08-17T07:50:53;19.60;99.90
17988;DHT22;9119;50.932;5.342;2023-08-17T07:53:19;19.60;99.90
17988;DHT22;9119;50.932;5.342;2023-08-17T07:55:45;19.70;99.90
17988;DHT22;9119;50.932;5.342;2023-08-17T07:58:11;19.70;99.90
17988;DHT22;9119;50.932;5.342;2023-08-17T08:00:37;19.70;99.90
17988;DHT22;9119;50.932;5.342;2023-08-17T08:03:03;19.60;99.90
17988;DHT22;9119;50.932;5.342;2023-08-17T08:05:29;19.70;99.90
17988;DHT22;9119;50.932;5.342;2023-08-17T08:07:54;19.70;99.90
17988;DHT22;9119;50.932;5.342;2023-08-17T08:10:20;19.70;99.90
17988;DHT22;9119;50.932;5.342;2023-08-17T08:12:46;19.70;99.90
17988;DHT22;9119;50.932;5.342;2023-08-17T08:15:11;19.90;99.90
17988;DHT22;9119;50.932;5.342;2023-08-17T08:17:37;19.90;99.90
17988;DHT22;9119;50.932;5.342;2023-08-17T08:20:03;19.70;99.90
17988;DHT22;9119;50.932;5.342;2023-08-17T08:22:30;19.70;99.90
17988;DHT22;9119;50.932;5.342;2023-08-17T08:24:56;19.70;99.90
17988;DHT22;9119;50.932;5.342;2023-08-17T08:27:22;19.80;99.90
17988;DHT22;9119;50.932;5.342;2023-08-17T08:29:47;20.00;99.90
17988;DHT22;9119;50.932;5.342;2023-08-17T08:32:13;20.20;99.90
17988;DHT22;9119;50.932;5.342;2023-08-17T08:34:39;20.30;99.90
17988;DHT22;9119;50.932;5.342;2023-08-17T08:37:04;20.30;99.90
17988;DHT22;9119;50.932;5.342;2023-08-17T08:39:30;20.30;99.90
17988;DHT22;9119;50.932;5.342;2023-08-17T08:41:56;20.20;99.90
17988;DHT22;9119;50.932;5.342;2023-08-17T08:44:22;20.00;99.90
17988;DHT22;9119;50.932;5.342;2023-08-17T08:46:48;19.90;99.90
17988;DHT22;9119;50.932;5.342;2023-08-17T08:49:22;20.10;99.90
17988;DHT22;9119;50.932;5.342;2023-08-17T08:51:50;20.10;99.90
17988;DHT22;9119;50.932;5.342;2023-08-17T08:54:21;20.20;99.90
17988;DHT22;9119;50.932;5.342;2023-08-17T08:56:54;20.10;99.90
17988;DHT22;9119;50.932;5.342;2023-08-17T08:59:24;20.10;99.90
17988;DHT22;9119;50.932;5.342;2023-08-17T09:01:52;20.00;99.90
17988;DHT22;9119;50.932;5.342;2023-08-17T09:04:19;19.90;99.90
17988;DHT22;9119;50.932;5.342;2023-08-17T09:06:45;19.80;99.90
17988;DHT22;9119;50.932;5.342;2023-08-17T09:09:12;20.00;99.90
17988;DHT22;9119;50.932;5.342;2023-08-17T09:11:40;20.00;99.90
17988;DHT22;9119;50.932;5.342;2023-08-17T09:14:06;20.20;99.90
17988;DHT22;9119;50.932;5.342;2023-08-17T09:16:32;20.10;99.90
17988;DHT22;9119;50.932;5.342;2023-08-17T09:18:58;20.10;99.90
17988;DHT22;9119;50.932;5.342;2023-08-17T09:21:24;20.10;99.90
17988;DHT22;9119;50.932;5.342;2023-08-17T09:23:54;20.20;99.90
17988;DHT22;9119;50.932;5.342;2023-08-17T09:26:23;20.30;99.90
17988;DHT22;9119;50.932;5.342;2023-08-17T09:28:52;20.50;99.90
17988;DHT22;9119;50.932;5.342;2023-08-17T09:31:23;20.80;99.90
17988;DHT22;9119;50.932;5.342;2023-08-17T09:33:53;20.80;99.90
17988;DHT22;9119;50.932;5.342;2023-08-17T09:36:22;20.70;99.90
17988;DHT22;9119;50.932;5.342;2023-08-17T09:38:49;20.70;99.90
17988;DHT22;9119;50.932;5.342;2023-08-17T09:41:16;20.80;99.90
17988;DHT22;9119;50.932;5.342;2023-08-17T09:43:41;20.90;99.90
17988;DHT22;9119;50.932;5.342;2023-08-17T09:46:09;20.80;99.90
17988;DHT22;9119;50.932;5.342;2023-08-17T09:48:35;20.70;99.90
17988;DHT22;9119;50.932;5.342;2023-08-17T09:51:01;20.90;99.90
17988;DHT22;9119;50.932;5.342;2023-08-17T09:53:27;20.90;99.90
17988;DHT22;9119;50.932;5.342;2023-08-17T09:55:54;21.00;99.90
17988;DHT22;9119;50.932;5.342;2023-08-17T09:58:22;21.10;99.90
17988;DHT22;9119;50.932;5.342;2023-08-17T10:00:49;21.10;99.90
17988;DHT22;9119;50.932;5.342;2023-08-17T10:03:16;20.90;99.90
17988;DHT22;9119;50.932;5.342;2023-08-17T10:05:44;21.00;99.90
17988;DHT22;9119;50.932;5.342;2023-08-17T10:08:12;21.10;99.90
17988;DHT22;9119;50.932;5.342;2023-08-17T10:10:43;21.00;99.90
17988;DHT22;9119;50.932;5.342;2023-08-17T10:13:11;21.00;99.90
17988;DHT22;9119;50.932;5.342;2023-08-17T10:15:41;20.90;99.90
17988;DHT22;9119;50.932;5.342;2023-08-17T10:21:02;20.80;99.90
17988;DHT22;9119;50.932;5.342;2023-08-17T10:23:30;20.70;99.90
17988;DHT22;9119;50.932;5.342;2023-08-17T10:25:56;21.00;99.90
17988;DHT22;9119;50.932;5.342;2023-08-17T10:28:23;21.10;99.90
17988;DHT22;9119;50.932;5.342;2023-08-17T10:30:50;21.20;99.90
17988;DHT22;9119;50.932;5.342;2023-08-17T10:33:16;21.30;99.90
17988;DHT22;9119;50.932;5.342;2023-08-17T10:35:42;21.20;99.90
17988;DHT22;9119;50.932;5.342;2023-08-17T10:38:08;21.10;99.90
17988;DHT22;9119;50.932;5.342;2023-08-17T10:40:35;21.20;99.90
17988;DHT22;9119;50.932;5.342;2023-08-17T10:43:01;21.30;99.90
17988;DHT22;9119;50.932;5.342;2023-08-17T10:45:29;21.30;99.90
17988;DHT22;9119;50.932;5.342;2023-08-17T10:50:35;21.10;99.90
17988;DHT22;9119;50.932;5.342;2023-08-17T10:53:11;21.10;99.90
17988;DHT22;9119;50.932;5.342;2023-08-17T10:55:41;21.10;99.90
17988;DHT22;9119;50.932;5.342;2023-08-17T10:58:07;21.10;99.90
17988;DHT22;9119;50.932;5.342;2023-08-17T11:00:39;21.20;99.90
17988;DHT22;9119;50.932;5.342;2023-08-17T11:03:07;21.20;99.90
17988;DHT22;9119;50.932;5.342;2023-08-17T11:05:45;21.30;99.90
17988;DHT22;9119;50.932;5.342;2023-08-17T11:11:08;21.40;99.90
17988;DHT22;9119;50.932;5.342;2023-08-17T11:13:42;21.30;99.90
17988;DHT22;9119;50.932;5.342;2023-08-17T11:16:09;21.30;99.90
17988;DHT22;9119;50.932;5.342;2023-08-17T11:18:36;21.40;99.90
17988;DHT22;9119;50.932;5.342;2023-08-17T11:21:06;21.40;99.90
17988;DHT22;9119;50.932;5.342;2023-08-17T11:23:33;21.50;99.90
17988;DHT22;9119;50.932;5.342;2023-08-17T11:25:59;21.70;99.90
17988;DHT22;9119;50.932;5.342;2023-08-17T11:28:25;21.70;99.90
17988;DHT22;9119;50.932;5.342;2023-08-17T11:31:11;21.60;99.90
17988;DHT22;9119;50.932;5.342;2023-08-17T11:33:37;21.50;99.90
17988;DHT22;9119;50.932;5.342;2023-08-17T11:36:05;21.30;99.90
17988;DHT22;9119;50.932;5.342;2023-08-17T11:38:35;21.20;99.90
17988;DHT22;9119;50.932;5.342;2023-08-17T11:41:02;21.40;99.90
17988;DHT22;9119;50.932;5.342;2023-08-17T11:43:32;21.40;99.90
17988;DHT22;9119;50.932;5.342;2023-08-17T11:46:00;21.50;99.90
17988;DHT22;9119;50.932;5.342;2023-08-17T11:48:26;21.40;99.90
17988;DHT22;9119;50.932;5.342;2023-08-17T11:50:52;21.10;99.90
17988;DHT22;9119;50.932;5.342;2023-08-17T11:53:18;21.20;99.90
17988;DHT22;9119;50.932;5.342;2023-08-17T11:55:44;21.30;99.90
17988;DHT22;9119;50.932;5.342;2023-08-17T11:58:09;21.20;99.90
17988;DHT22;9119;50.932;5.342;2023-08-17T12:00:45;21.30;99.90
17988;DHT22;9119;50.932;5.342;2023-08-17T12:03:14;21.30;99.90
17988;DHT22;9119;50.932;5.342;2023-08-17T12:05:41;21.40;99.90
17988;DHT22;9119;50.932;5.342;2023-08-17T12:08:07;21.40;99.90
17988;DHT22;9119;50.932;5.342;2023-08-17T12:10:34;21.40;99.90
17988;DHT22;9119;50.932;5.342;2023-08-17T12:13:00;21.40;99.90
17988;DHT22;9119;50.932;5.342;2023-08-17T12:15:35;21.40;99.90
17988;DHT22;9119;50.932;5.342;2023-08-17T12:18:05;21.30;99.90
17988;DHT22;9119;50.932;5.342;2023-08-17T12:20:32;21.50;99.90
17988;DHT22;9119;50.932;5.342;2023-08-17T12:23:02;21.60;99.90
17988;DHT22;9119;50.932;5.342;2023-08-17T12:25:28;21.60;99.90
17988;DHT22;9119;50.932;5.342;2023-08-17T12:27:53;21.70;99.90
17988;DHT22;9119;50.932;5.342;2023-08-17T12:30:30;21.70;99.90
17988;DHT22;9119;50.932;5.342;2023-08-17T12:32:58;21.70;99.90
17988;DHT22;9119;50.932;5.342;2023-08-17T12:35:24;21.70;99.90
17988;DHT22;9119;50.932;5.342;2023-08-17T12:37:51;21.70;99.90
17988;DHT22;9119;50.932;5.342;2023-08-17T12:40:17;21.60;99.90
17988;DHT22;9119;50.932;5.342;2023-08-17T12:42:42;21.60;99.90
17988;DHT22;9119;50.932;5.342;2023-08-17T12:45:08;21.90;99.90
17988;DHT22;9119;50.932;5.342;2023-08-17T12:47:34;22.10;99.90
17988;DHT22;9119;50.932;5.342;2023-08-17T12:50:00;22.20;99.90
17988;DHT22;9119;50.932;5.342;2023-08-17T12:52:27;22.20;99.90
17988;DHT22;9119;50.932;5.342;2023-08-17T12:54:53;22.20;99.90
17988;DHT22;9119;50.932;5.342;2023-08-17T12:57:19;22.10;99.90
17988;DHT22;9119;50.932;5.342;2023-08-17T12:59:44;22.00;99.90
17988;DHT22;9119;50.932;5.342;2023-08-17T13:02:11;22.00;99.90
17988;DHT22;9119;50.932;5.342;2023-08-17T13:04:36;22.20;99.90
17988;DHT22;9119;50.932;5.342;2023-08-17T13:07:02;22.00;99.90
17988;DHT22;9119;50.932;5.342;2023-08-17T13:09:28;21.80;99.90
17988;DHT22;9119;50.932;5.342;2023-08-17T13:11:54;21.80;99.90
17988;DHT22;9119;50.932;5.342;2023-08-17T13:14:19;22.10;99.90
17988;DHT22;9119;50.932;5.342;2023-08-17T13:16:45;22.10;99.90
17988;DHT22;9119;50.932;5.342;2023-08-17T13:19:11;22.00;99.90
17988;DHT22;9119;50.932;5.342;2023-08-17T13:21:36;22.00;99.90
17988;DHT22;9119;50.932;5.342;2023-08-17T13:24:02;22.00;99.90
17988;DHT22;9119;50.932;5.342;2023-08-17T13:26:29;22.30;99.90
17988;DHT22;9119;50.932;5.342;2023-08-17T13:28:55;22.40;99.90
17988;DHT22;9119;50.932;5.342;2023-08-17T13:31:21;22.30;99.90
17988;DHT22;9119;50.932;5.342;2023-08-17T13:33:47;22.50;99.90
17988;DHT22;9119;50.932;5.342;2023-08-17T13:36:13;22.50;99.90
17988;DHT22;9119;50.932;5.342;2023-08-17T13:38:38;22.50;99.90
17988;DHT22;9119;50.932;5.342;2023-08-17T13:41:04;22.40;99.90
17988;DHT22;9119;50.932;5.342;2023-08-17T13:43:30;22.10;99.90
17988;DHT22;9119;50.932;5.342;2023-08-17T13:45:56;21.90;99.90
17988;DHT22;9119;50.932;5.342;2023-08-17T13:48:22;21.80;99.90
17988;DHT22;9119;50.932;5.342;2023-08-17T13:50:47;22.10;99.90
17988;DHT22;9119;50.932;5.342;2023-08-17T13:53:13;22.20;99.90
17988;DHT22;9119;50.932;5.342;2023-08-17T13:55:39;22.20;99.90
17988;DHT22;9119;50.932;5.342;2023-08-17T13:58:05;22.30;99.90
17988;DHT22;9119;50.932;5.342;2023-08-17T14:00:31;22.20;99.90
17988;DHT22;9119;50.932;5.342;2023-08-17T14:02:57;22.40;99.90
17988;DHT22;9119;50.932;5.342;2023-08-17T14:05:22;22.10;99.90
17988;DHT22;9119;50.932;5.342;2023-08-17T14:07:48;21.90;99.90
17988;DHT22;9119;50.932;5.342;2023-08-17T14:10:14;21.80;99.90
17988;DHT22;9119;50.932;5.342;2023-08-17T14:12:40;21.80;99.90
17988;DHT22;9119;50.932;5.342;2023-08-17T14:15:06;21.80;99.90
17988;DHT22;9119;50.932;5.342;2023-08-17T14:17:32;21.90;99.90
17988;DHT22;9119;50.932;5.342;2023-08-17T14:19:58;21.90;99.90
17988;DHT22;9119;50.932;5.342;2023-08-17T14:22:24;22.00;99.90
17988;DHT22;9119;50.932;5.342;2023-08-17T14:24:50;22.00;99.90
17988;DHT22;9119;50.932;5.342;2023-08-17T14:27:16;21.80;99.90
17988;DHT22;9119;50.932;5.342;2023-08-17T14:29:42;21.90;99.90
17988;DHT22;9119;50.932;5.342;2023-08-17T14:32:07;21.90;99.90
17988;DHT22;9119;50.932;5.342;2023-08-17T14:34:33;22.10;99.90
17988;DHT22;9119;50.932;5.342;2023-08-17T14:36:59;22.20;99.90
17988;DHT22;9119;50.932;5.342;2023-08-17T14:39:24;22.30;99.90
17988;DHT22;9119;50.932;5.342;2023-08-17T14:41:50;22.50;99.90
17988;DHT22;9119;50.932;5.342;2023-08-17T14:44:18;22.60;99.90
17988;DHT22;9119;50.932;5.342;2023-08-17T14:46:43;22.70;99.90
17988;DHT22;9119;50.932;5.342;2023-08-17T14:49:09;23.00;99.90
17988;DHT22;9119;50.932;5.342;2023-08-17T14:51:38;23.10;99.90
17988;DHT22;9119;50.932;5.342;2023-08-17T14:54:08;22.80;99.90
17988;DHT22;9119;50.932;5.342;2023-08-17T14:56:34;22.70;99.90
17988;DHT22;9119;50.932;5.342;2023-08-17T14:59:00;22.40;99.90
17988;DHT22;9119;50.932;5.342;2023-08-17T15:01:27;22.40;99.90
17988;DHT22;9119;50.932;5.342;2023-08-17T15:03:53;22.50;99.90
17988;DHT22;9119;50.932;5.342;2023-08-17T15:06:18;22.50;99.90
17988;DHT22;9119;50.932;5.342;2023-08-17T15:08:49;22.30;99.90
17988;DHT22;9119;50.932;5.342;2023-08-17T15:11:15;22.30;99.90
17988;DHT22;9119;50.932;5.342;2023-08-17T15:13:40;22.30;99.90
17988;DHT22;9119;50.932;5.342;2023-08-17T15:16:06;22.40;99.90
17988;DHT22;9119;50.932;5.342;2023-08-17T15:18:32;22.50;99.90
17988;DHT22;9119;50.932;5.342;2023-08-17T15:20:58;22.60;99.90
17988;DHT22;9119;50.932;5.342;2023-08-17T15:23:24;22.70;99.90
17988;DHT22;9119;50.932;5.342;2023-08-17T15:25:49;22.50;99.90
17988;DHT22;9119;50.932;5.342;2023-08-17T15:28:15;22.40;99.90
17988;DHT22;9119;50.932;5.342;2023-08-17T15:30:41;22.30;99.90
17988;DHT22;9119;50.932;5.342;2023-08-17T15:33:07;22.30;99.90
17988;DHT22;9119;50.932;5.342;2023-08-17T15:35:33;22.20;99.90
17988;DHT22;9119;50.932;5.342;2023-08-17T15:37:58;22.30;99.90
17988;DHT22;9119;50.932;5.342;2023-08-17T15:40:24;22.30;99.90
17988;DHT22;9119;50.932;5.342;2023-08-17T15:42:50;22.30;99.90
17988;DHT22;9119;50.932;5.342;2023-08-17T15:45:15;22.10;99.90
17988;DHT22;9119;50.932;5.342;2023-08-17T15:47:43;22.00;99.90
17988;DHT22;9119;50.932;5.342;2023-08-17T15:50:09;21.90;99.90